KADG/ADG METAR and TAF weather

Enter ICAO airport designator
Station Type Date Time Source
KADG METAR 2022/11/30 10:53 UTC NOAA

KADG 301053Z AUTO 29020G32KT 10SM OVC016 04/02 A2962 RMK AO2 PK WND 30032/1052 SLP037 T00440017 $


Station Type Date Time Source
KADG Decoded METAR 2022/11/30 10:53 UTC NOAA

ADRIAN LENAWEE COUNTY AIRPORT, MI, United States (KADG) 41-52N 84-05W 241M
Nov 30, 2022 - 05:53 AM EST / 2022.11.30 1053 UTC
Wind: from the WNW (290 degrees) at 23 MPH (20 KT) gusting to 37 MPH (32 KT):0
Visibility: 10 mile(s):0
Sky conditions: overcast
Temperature: 39.9 F (4.4 C)
Dew Point: 35.1 F (1.7 C)
Relative Humidity: 82%
Pressure (altimeter): 29.62 in. Hg (1003 hPa)
ob: KADG 301053Z AUTO 29020G32KT 10SM OVC016 04/02 A2962 RMK AO2 PK WND 30032/1052 SLP037 T00440017
cycle: 11

Station Type Date Time Source
KADG TAF UTC NOAA

Error!

Example: see airport list